sensor_id;sensor_type;location;lat;lon;timestamp;P1;durP1;ratioP1;P2;durP2;ratioP2
26718;SDS011;14326;50.794;6.060;2023-05-09T00:00:44;46.92;;;25.02;;
26718;SDS011;14326;50.794;6.060;2023-05-09T00:03:10;44.17;;;22.92;;
26718;SDS011;14326;50.794;6.060;2023-05-09T00:05:47;44.53;;;24.10;;
26718;SDS011;14326;50.794;6.060;2023-05-09T00:08:56;36.45;;;18.10;;
26718;SDS011;14326;50.794;6.060;2023-05-09T00:11:42;46.25;;;22.65;;
26718;SDS011;14326;50.794;6.060;2023-05-09T00:14:09;48.35;;;24.08;;
26718;SDS011;14326;50.794;6.060;2023-05-09T00:16:37;47.08;;;23.63;;
26718;SDS011;14326;50.794;6.060;2023-05-09T00:19:04;48.03;;;25.17;;
26718;SDS011;14326;50.794;6.060;2023-05-09T00:21:42;46.25;;;23.85;;
26718;SDS011;14326;50.794;6.060;2023-05-09T00:24:10;43.22;;;22.98;;
26718;SDS011;14326;50.794;6.060;2023-05-09T00:26:36;47.33;;;24.52;;
26718;SDS011;14326;50.794;6.060;2023-05-09T00:29:03;45.40;;;23.25;;
26718;SDS011;14326;50.794;6.060;2023-05-09T00:31:30;48.75;;;24.50;;
26718;SDS011;14326;50.794;6.060;2023-05-09T00:34:07;48.17;;;24.90;;
26718;SDS011;14326;50.794;6.060;2023-05-09T00:37:00;48.20;;;25.05;;
26718;SDS011;14326;50.794;6.060;2023-05-09T00:39:49;44.10;;;22.73;;
26718;SDS011;14326;50.794;6.060;2023-05-09T00:42:40;46.13;;;24.23;;
26718;SDS011;14326;50.794;6.060;2023-05-09T00:45:13;49.45;;;25.10;;
26718;SDS011;14326;50.794;6.060;2023-05-09T00:47:40;45.47;;;24.58;;
26718;SDS011;14326;50.794;6.060;2023-05-09T00:50:07;50.70;;;23.90;;
26718;SDS011;14326;50.794;6.060;2023-05-09T00:52:35;44.97;;;23.83;;
26718;SDS011;14326;50.794;6.060;2023-05-09T00:55:03;46.45;;;25.38;;
26718;SDS011;14326;50.794;6.060;2023-05-09T00:59:58;50.35;;;24.55;;
26718;SDS011;14326;50.794;6.060;2023-05-09T01:02:25;45.33;;;24.63;;
26718;SDS011;14326;50.794;6.060;2023-05-09T01:04:52;45.30;;;24.10;;
26718;SDS011;14326;50.794;6.060;2023-05-09T01:07:22;47.72;;;25.25;;
26718;SDS011;14326;50.794;6.060;2023-05-09T01:13:09;44.45;;;24.73;;
26718;SDS011;14326;50.794;6.060;2023-05-09T01:15:42;43.72;;;24.00;;
26718;SDS011;14326;50.794;6.060;2023-05-09T01:18:15;46.70;;;24.02;;
26718;SDS011;14326;50.794;6.060;2023-05-09T01:21:04;45.60;;;24.75;;
26718;SDS011;14326;50.794;6.060;2023-05-09T01:27:05;47.10;;;24.33;;
26718;SDS011;14326;50.794;6.060;2023-05-09T01:29:43;46.10;;;24.73;;
26718;SDS011;14326;50.794;6.060;2023-05-09T01:32:16;46.83;;;26.05;;
26718;SDS011;14326;50.794;6.060;2023-05-09T01:34:45;50.58;;;26.35;;
26718;SDS011;14326;50.794;6.060;2023-05-09T01:37:26;49.70;;;25.02;;
26718;SDS011;14326;50.794;6.060;2023-05-09T01:40:20;48.20;;;23.63;;
26718;SDS011;14326;50.794;6.060;2023-05-09T01:42:51;45.60;;;23.85;;
26718;SDS011;14326;50.794;6.060;2023-05-09T01:45:24;44.58;;;24.95;;
26718;SDS011;14326;50.794;6.060;2023-05-09T01:47:52;43.03;;;23.38;;
26718;SDS011;14326;50.794;6.060;2023-05-09T01:50:19;47.42;;;25.20;;
26718;SDS011;14326;50.794;6.060;2023-05-09T01:52:48;51.38;;;26.05;;
26718;SDS011;14326;50.794;6.060;2023-05-09T01:55:17;46.45;;;25.52;;
26718;SDS011;14326;50.794;6.060;2023-05-09T01:57:46;48.40;;;24.77;;
26718;SDS011;14326;50.794;6.060;2023-05-09T02:00:15;42.58;;;23.65;;
26718;SDS011;14326;50.794;6.060;2023-05-09T02:02:44;46.47;;;23.80;;
26718;SDS011;14326;50.794;6.060;2023-05-09T02:08:23;47.70;;;24.63;;
26718;SDS011;14326;50.794;6.060;2023-05-09T02:11:07;50.88;;;24.15;;
26718;SDS011;14326;50.794;6.060;2023-05-09T02:13:33;47.97;;;25.20;;
26718;SDS011;14326;50.794;6.060;2023-05-09T02:16:05;56.15;;;28.70;;
26718;SDS011;14326;50.794;6.060;2023-05-09T02:19:10;54.17;;;26.92;;
26718;SDS011;14326;50.794;6.060;2023-05-09T02:24:44;59.25;;;28.58;;
26718;SDS011;14326;50.794;6.060;2023-05-09T02:27:36;75.70;;;31.13;;
26718;SDS011;14326;50.794;6.060;2023-05-09T02:30:43;69.07;;;32.97;;
26718;SDS011;14326;50.794;6.060;2023-05-09T02:33:22;75.55;;;36.13;;
26718;SDS011;14326;50.794;6.060;2023-05-09T02:35:51;67.65;;;34.13;;
26718;SDS011;14326;50.794;6.060;2023-05-09T02:38:29;74.47;;;34.75;;
26718;SDS011;14326;50.794;6.060;2023-05-09T02:41:05;76.00;;;36.45;;
26718;SDS011;14326;50.794;6.060;2023-05-09T02:43:32;78.38;;;34.45;;
26718;SDS011;14326;50.794;6.060;2023-05-09T02:45:58;74.65;;;34.25;;
26718;SDS011;14326;50.794;6.060;2023-05-09T02:48:25;81.45;;;35.75;;
26718;SDS011;14326;50.794;6.060;2023-05-09T02:50:53;76.68;;;33.42;;
26718;SDS011;14326;50.794;6.060;2023-05-09T02:53:19;75.28;;;34.38;;
26718;SDS011;14326;50.794;6.060;2023-05-09T02:55:49;50.90;;;23.40;;
26718;SDS011;14326;50.794;6.060;2023-05-09T02:58:16;72.35;;;34.17;;
26718;SDS011;14326;50.794;6.060;2023-05-09T03:00:42;69.43;;;33.15;;
26718;SDS011;14326;50.794;6.060;2023-05-09T03:03:09;70.88;;;32.67;;
26718;SDS011;14326;50.794;6.060;2023-05-09T03:05:36;66.63;;;31.95;;
26718;SDS011;14326;50.794;6.060;2023-05-09T03:08:04;78.75;;;33.95;;
26718;SDS011;14326;50.794;6.060;2023-05-09T03:10:31;69.30;;;31.70;;
26718;SDS011;14326;50.794;6.060;2023-05-09T03:12:57;79.97;;;35.42;;
26718;SDS011;14326;50.794;6.060;2023-05-09T03:15:24;80.90;;;33.33;;
26718;SDS011;14326;50.794;6.060;2023-05-09T03:17:51;75.63;;;34.30;;
26718;SDS011;14326;50.794;6.060;2023-05-09T03:20:17;82.13;;;36.63;;
26718;SDS011;14326;50.794;6.060;2023-05-09T03:22:44;87.40;;;35.45;;
26718;SDS011;14326;50.794;6.060;2023-05-09T03:25:13;86.47;;;37.28;;
26718;SDS011;14326;50.794;6.060;2023-05-09T03:27:40;85.97;;;35.83;;
26718;SDS011;14326;50.794;6.060;2023-05-09T03:30:07;88.40;;;37.22;;
26718;SDS011;14326;50.794;6.060;2023-05-09T03:32:34;75.15;;;36.33;;
26718;SDS011;14326;50.794;6.060;2023-05-09T03:35:01;71.22;;;34.90;;
26718;SDS011;14326;50.794;6.060;2023-05-09T03:37:28;81.38;;;33.97;;
26718;SDS011;14326;50.794;6.060;2023-05-09T03:40:08;76.63;;;34.80;;
26718;SDS011;14326;50.794;6.060;2023-05-09T03:42:55;78.85;;;35.88;;
26718;SDS011;14326;50.794;6.060;2023-05-09T03:45:21;76.13;;;34.05;;
26718;SDS011;14326;50.794;6.060;2023-05-09T03:47:48;81.40;;;33.40;;
26718;SDS011;14326;50.794;6.060;2023-05-09T03:50:15;77.57;;;33.33;;
26718;SDS011;14326;50.794;6.060;2023-05-09T03:52:41;70.65;;;31.15;;
26718;SDS011;14326;50.794;6.060;2023-05-09T03:55:08;78.68;;;34.28;;
26718;SDS011;14326;50.794;6.060;2023-05-09T03:57:38;76.53;;;32.28;;
26718;SDS011;14326;50.794;6.060;2023-05-09T04:00:29;70.88;;;33.72;;
26718;SDS011;14326;50.794;6.060;2023-05-09T04:02:56;78.75;;;32.95;;
26718;SDS011;14326;50.794;6.060;2023-05-09T04:05:22;66.15;;;32.17;;
26718;SDS011;14326;50.794;6.060;2023-05-09T04:07:51;72.57;;;32.25;;
26718;SDS011;14326;50.794;6.060;2023-05-09T04:10:17;76.25;;;33.20;;
26718;SDS011;14326;50.794;6.060;2023-05-09T04:12:44;68.43;;;30.83;;
26718;SDS011;14326;50.794;6.060;2023-05-09T04:15:12;66.90;;;30.60;;
26718;SDS011;14326;50.794;6.060;2023-05-09T04:17:57;72.22;;;32.00;;
26718;SDS011;14326;50.794;6.060;2023-05-09T04:20:26;69.37;;;31.20;;
26718;SDS011;14326;50.794;6.060;2023-05-09T04:22:52;50.65;;;26.30;;
26718;SDS011;14326;50.794;6.060;2023-05-09T04:25:19;50.33;;;24.25;;
26718;SDS011;14326;50.794;6.060;2023-05-09T04:27:51;48.25;;;24.15;;
26718;SDS011;14326;50.794;6.060;2023-05-09T04:30:25;54.53;;;25.88;;
26718;SDS011;14326;50.794;6.060;2023-05-09T04:32:52;48.70;;;24.90;;
26718;SDS011;14326;50.794;6.060;2023-05-09T04:35:20;48.15;;;23.13;;
26718;SDS011;14326;50.794;6.060;2023-05-09T04:37:47;48.92;;;23.15;;
26718;SDS011;14326;50.794;6.060;2023-05-09T04:40:14;49.72;;;23.08;;
26718;SDS011;14326;50.794;6.060;2023-05-09T04:42:40;43.10;;;20.33;;
26718;SDS011;14326;50.794;6.060;2023-05-09T04:45:07;41.13;;;20.85;;
26718;SDS011;14326;50.794;6.060;2023-05-09T04:47:35;42.42;;;19.63;;
26718;SDS011;14326;50.794;6.060;2023-05-09T04:50:02;38.28;;;20.02;;
26718;SDS011;14326;50.794;6.060;2023-05-09T04:52:31;37.90;;;19.55;;
26718;SDS011;14326;50.794;6.060;2023-05-09T04:54:57;37.67;;;18.48;;
26718;SDS011;14326;50.794;6.060;2023-05-09T04:57:24;37.90;;;20.80;;
26718;SDS011;14326;50.794;6.060;2023-05-09T04:59:50;34.35;;;18.20;;
26718;SDS011;14326;50.794;6.060;2023-05-09T05:02:17;37.53;;;18.70;;
26718;SDS011;14326;50.794;6.060;2023-05-09T05:04:45;34.78;;;18.77;;
26718;SDS011;14326;50.794;6.060;2023-05-09T05:07:11;37.97;;;18.95;;
26718;SDS011;14326;50.794;6.060;2023-05-09T05:09:39;35.15;;;18.42;;
26718;SDS011;14326;50.794;6.060;2023-05-09T05:12:06;34.47;;;17.25;;
26718;SDS011;14326;50.794;6.060;2023-05-09T05:14:33;33.83;;;17.52;;
26718;SDS011;14326;50.794;6.060;2023-05-09T05:16:59;28.75;;;15.18;;
26718;SDS011;14326;50.794;6.060;2023-05-09T05:19:29;28.63;;;15.95;;
26718;SDS011;14326;50.794;6.060;2023-05-09T05:21:55;28.30;;;15.30;;
26718;SDS011;14326;50.794;6.060;2023-05-09T05:24:22;27.33;;;14.93;;
26718;SDS011;14326;50.794;6.060;2023-05-09T05:27:03;27.63;;;13.10;;
26718;SDS011;14326;50.794;6.060;2023-05-09T05:29:44;28.67;;;12.98;;
26718;SDS011;14326;50.794;6.060;2023-05-09T05:32:10;26.98;;;13.88;;
26718;SDS011;14326;50.794;6.060;2023-05-09T05:34:37;27.02;;;12.77;;
26718;SDS011;14326;50.794;6.060;2023-05-09T05:37:04;25.75;;;13.00;;
26718;SDS011;14326;50.794;6.060;2023-05-09T05:39:31;25.58;;;12.70;;
26718;SDS011;14326;50.794;6.060;2023-05-09T05:41:58;24.60;;;11.60;;
26718;SDS011;14326;50.794;6.060;2023-05-09T05:44:25;26.08;;;12.60;;
26718;SDS011;14326;50.794;6.060;2023-05-09T05:46:52;26.67;;;12.40;;
26718;SDS011;14326;50.794;6.060;2023-05-09T05:49:18;26.48;;;12.52;;
26718;SDS011;14326;50.794;6.060;2023-05-09T05:51:51;26.55;;;12.43;;
26718;SDS011;14326;50.794;6.060;2023-05-09T05:54:17;23.65;;;11.30;;
26718;SDS011;14326;50.794;6.060;2023-05-09T05:56:44;26.67;;;12.13;;
26718;SDS011;14326;50.794;6.060;2023-05-09T05:59:12;24.65;;;11.75;;
26718;SDS011;14326;50.794;6.060;2023-05-09T06:01:39;26.48;;;11.88;;
26718;SDS011;14326;50.794;6.060;2023-05-09T06:04:05;22.88;;;11.40;;
26718;SDS011;14326;50.794;6.060;2023-05-09T06:06:32;23.67;;;10.60;;
26718;SDS011;14326;50.794;6.060;2023-05-09T06:08:58;22.77;;;11.50;;
26718;SDS011;14326;50.794;6.060;2023-05-09T06:11:25;22.55;;;10.85;;
26718;SDS011;14326;50.794;6.060;2023-05-09T06:13:52;21.67;;;9.75;;
26718;SDS011;14326;50.794;6.060;2023-05-09T06:16:20;23.75;;;10.95;;
26718;SDS011;14326;50.794;6.060;2023-05-09T06:18:46;24.20;;;11.32;;
26718;SDS011;14326;50.794;6.060;2023-05-09T06:21:13;24.40;;;11.07;;
26718;SDS011;14326;50.794;6.060;2023-05-09T06:23:40;21.55;;;10.18;;
26718;SDS011;14326;50.794;6.060;2023-05-09T06:26:06;21.10;;;9.93;;
26718;SDS011;14326;50.794;6.060;2023-05-09T06:28:33;20.92;;;9.27;;
26718;SDS011;14326;50.794;6.060;2023-05-09T06:31:00;24.92;;;9.60;;
26718;SDS011;14326;50.794;6.060;2023-05-09T06:33:28;22.48;;;9.95;;
26718;SDS011;14326;50.794;6.060;2023-05-09T06:35:54;21.63;;;9.02;;
26718;SDS011;14326;50.794;6.060;2023-05-09T06:38:21;22.50;;;9.07;;
26718;SDS011;14326;50.794;6.060;2023-05-09T06:40:47;22.08;;;9.50;;
26718;SDS011;14326;50.794;6.060;2023-05-09T06:43:14;21.50;;;9.05;;
26718;SDS011;14326;50.794;6.060;2023-05-09T06:45:41;21.55;;;9.43;;
26718;SDS011;14326;50.794;6.060;2023-05-09T06:48:07;22.73;;;8.77;;
26718;SDS011;14326;50.794;6.060;2023-05-09T06:50:35;22.73;;;9.18;;
26718;SDS011;14326;50.794;6.060;2023-05-09T06:53:02;21.00;;;10.13;;
26718;SDS011;14326;50.794;6.060;2023-05-09T06:55:29;23.75;;;9.57;;
26718;SDS011;14326;50.794;6.060;2023-05-09T06:57:55;21.27;;;9.18;;
26718;SDS011;14326;50.794;6.060;2023-05-09T07:00:22;21.67;;;9.10;;
26718;SDS011;14326;50.794;6.060;2023-05-09T07:02:49;20.10;;;9.07;;
26718;SDS011;14326;50.794;6.060;2023-05-09T07:05:15;22.65;;;9.02;;
26718;SDS011;14326;50.794;6.060;2023-05-09T07:07:46;21.67;;;9.15;;
26718;SDS011;14326;50.794;6.060;2023-05-09T07:10:15;23.70;;;8.82;;
26718;SDS011;14326;50.794;6.060;2023-05-09T07:12:42;21.80;;;8.80;;
26718;SDS011;14326;50.794;6.060;2023-05-09T07:15:09;20.77;;;8.63;;
26718;SDS011;14326;50.794;6.060;2023-05-09T07:17:36;21.15;;;8.05;;
26718;SDS011;14326;50.794;6.060;2023-05-09T07:20:02;22.55;;;8.32;;
26718;SDS011;14326;50.794;6.060;2023-05-09T07:22:31;17.27;;;7.50;;
26718;SDS011;14326;50.794;6.060;2023-05-09T07:24:59;18.90;;;7.38;;
26718;SDS011;14326;50.794;6.060;2023-05-09T07:27:25;18.40;;;7.13;;
26718;SDS011;14326;50.794;6.060;2023-05-09T07:29:52;20.13;;;7.07;;
26718;SDS011;14326;50.794;6.060;2023-05-09T07:32:18;17.13;;;7.28;;
26718;SDS011;14326;50.794;6.060;2023-05-09T07:34:45;17.98;;;6.82;;
26718;SDS011;14326;50.794;6.060;2023-05-09T07:37:12;17.90;;;6.93;;
26718;SDS011;14326;50.794;6.060;2023-05-09T07:39:39;15.80;;;6.45;;
26718;SDS011;14326;50.794;6.060;2023-05-09T07:42:07;19.30;;;7.30;;
26718;SDS011;14326;50.794;6.060;2023-05-09T07:44:33;19.65;;;7.63;;
26718;SDS011;14326;50.794;6.060;2023-05-09T07:47:00;16.85;;;6.78;;
26718;SDS011;14326;50.794;6.060;2023-05-09T07:49:27;19.08;;;6.82;;
26718;SDS011;14326;50.794;6.060;2023-05-09T07:51:53;18.60;;;7.05;;
26718;SDS011;14326;50.794;6.060;2023-05-09T07:54:20;20.15;;;6.90;;
26718;SDS011;14326;50.794;6.060;2023-05-09T07:56:46;17.20;;;6.10;;
26718;SDS011;14326;50.794;6.060;2023-05-09T07:59:14;18.48;;;7.05;;
26718;SDS011;14326;50.794;6.060;2023-05-09T08:01:42;15.57;;;6.05;;
26718;SDS011;14326;50.794;6.060;2023-05-09T08:04:08;18.00;;;6.93;;
26718;SDS011;14326;50.794;6.060;2023-05-09T08:06:40;18.67;;;5.95;;
26718;SDS011;14326;50.794;6.060;2023-05-09T08:09:21;17.13;;;6.30;;
26718;SDS011;14326;50.794;6.060;2023-05-09T08:11:48;16.05;;;5.95;;
26718;SDS011;14326;50.794;6.060;2023-05-09T08:14:16;15.80;;;5.97;;
26718;SDS011;14326;50.794;6.060;2023-05-09T08:16:42;19.00;;;6.10;;
26718;SDS011;14326;50.794;6.060;2023-05-09T08:19:09;14.60;;;5.85;;
26718;SDS011;14326;50.794;6.060;2023-05-09T08:21:44;15.63;;;5.65;;
26718;SDS011;14326;50.794;6.060;2023-05-09T08:24:21;16.15;;;6.00;;
26718;SDS011;14326;50.794;6.060;2023-05-09T08:26:47;17.70;;;6.32;;
26718;SDS011;14326;50.794;6.060;2023-05-09T08:29:15;15.10;;;6.25;;
26718;SDS011;14326;50.794;6.060;2023-05-09T08:31:42;20.17;;;6.20;;
26718;SDS011;14326;50.794;6.060;2023-05-09T08:34:09;16.48;;;5.63;;
26718;SDS011;14326;50.794;6.060;2023-05-09T08:36:35;14.80;;;4.85;;
26718;SDS011;14326;50.794;6.060;2023-05-09T08:39:02;16.02;;;5.47;;
26718;SDS011;14326;50.794;6.060;2023-05-09T08:41:28;14.93;;;5.70;;
26718;SDS011;14326;50.794;6.060;2023-05-09T08:44:05;15.68;;;5.38;;
26718;SDS011;14326;50.794;6.060;2023-05-09T08:46:57;17.40;;;6.28;;
26718;SDS011;14326;50.794;6.060;2023-05-09T08:49:37;16.83;;;6.28;;
26718;SDS011;14326;50.794;6.060;2023-05-09T08:52:07;16.55;;;5.55;;
26718;SDS011;14326;50.794;6.060;2023-05-09T08:57:02;16.92;;;6.78;;
26718;SDS011;14326;50.794;6.060;2023-05-09T08:59:28;16.17;;;5.43;;
26718;SDS011;14326;50.794;6.060;2023-05-09T09:01:58;18.95;;;5.80;;
26718;SDS011;14326;50.794;6.060;2023-05-09T09:04:25;13.77;;;4.93;;
26718;SDS011;14326;50.794;6.060;2023-05-09T09:06:52;14.90;;;5.00;;
26718;SDS011;14326;50.794;6.060;2023-05-09T09:09:20;16.70;;;5.25;;
26718;SDS011;14326;50.794;6.060;2023-05-09T09:11:48;14.18;;;4.93;;
26718;SDS011;14326;50.794;6.060;2023-05-09T09:14:17;13.70;;;4.50;;
26718;SDS011;14326;50.794;6.060;2023-05-09T09:16:50;15.23;;;5.55;;
26718;SDS011;14326;50.794;6.060;2023-05-09T09:19:21;13.98;;;4.90;;
26718;SDS011;14326;50.794;6.060;2023-05-09T09:21:50;13.93;;;5.18;;
26718;SDS011;14326;50.794;6.060;2023-05-09T09:24:20;12.17;;;4.53;;
26718;SDS011;14326;50.794;6.060;2023-05-09T09:26:48;14.90;;;4.70;;
26718;SDS011;14326;50.794;6.060;2023-05-09T09:29:16;13.80;;;5.50;;
26718;SDS011;14326;50.794;6.060;2023-05-09T09:31:44;12.88;;;4.78;;
26718;SDS011;14326;50.794;6.060;2023-05-09T09:34:12;14.00;;;4.65;;
26718;SDS011;14326;50.794;6.060;2023-05-09T09:36:45;12.63;;;4.57;;
26718;SDS011;14326;50.794;6.060;2023-05-09T09:39:12;12.95;;;4.35;;
26718;SDS011;14326;50.794;6.060;2023-05-09T09:41:40;11.05;;;4.35;;
26718;SDS011;14326;50.794;6.060;2023-05-09T09:44:17;14.25;;;4.90;;
26718;SDS011;14326;50.794;6.060;2023-05-09T09:46:55;12.45;;;4.75;;
26718;SDS011;14326;50.794;6.060;2023-05-09T09:49:22;10.07;;;3.95;;
26718;SDS011;14326;50.794;6.060;2023-05-09T09:51:54;13.77;;;4.38;;
26718;SDS011;14326;50.794;6.060;2023-05-09T09:54:22;10.98;;;4.05;;
26718;SDS011;14326;50.794;6.060;2023-05-09T09:56:51;14.68;;;4.68;;
26718;SDS011;14326;50.794;6.060;2023-05-09T09:59:19;8.93;;;3.90;;
26718;SDS011;14326;50.794;6.060;2023-05-09T10:02:02;13.55;;;4.65;;
26718;SDS011;14326;50.794;6.060;2023-05-09T10:04:32;12.57;;;4.07;;
26718;SDS011;14326;50.794;6.060;2023-05-09T10:07:09;15.73;;;4.05;;
26718;SDS011;14326;50.794;6.060;2023-05-09T10:09:45;14.93;;;4.28;;
26718;SDS011;14326;50.794;6.060;2023-05-09T10:12:19;12.02;;;4.25;;
26718;SDS011;14326;50.794;6.060;2023-05-09T10:14:47;10.80;;;4.10;;
26718;SDS011;14326;50.794;6.060;2023-05-09T10:17:14;13.50;;;4.75;;
26718;SDS011;14326;50.794;6.060;2023-05-09T10:19:51;10.63;;;4.43;;
26718;SDS011;14326;50.794;6.060;2023-05-09T10:22:22;16.45;;;5.60;;
26718;SDS011;14326;50.794;6.060;2023-05-09T10:24:50;12.38;;;4.28;;
26718;SDS011;14326;50.794;6.060;2023-05-09T10:27:26;13.00;;;5.00;;
26718;SDS011;14326;50.794;6.060;2023-05-09T10:29:56;12.15;;;3.55;;
26718;SDS011;14326;50.794;6.060;2023-05-09T10:32:30;13.05;;;5.15;;
26718;SDS011;14326;50.794;6.060;2023-05-09T10:35:04;13.38;;;4.95;;
26718;SDS011;14326;50.794;6.060;2023-05-09T10:37:33;16.63;;;5.65;;
26718;SDS011;14326;50.794;6.060;2023-05-09T10:40:07;16.45;;;5.43;;
26718;SDS011;14326;50.794;6.060;2023-05-09T10:42:39;20.73;;;7.68;;
26718;SDS011;14326;50.794;6.060;2023-05-09T10:45:09;16.30;;;5.60;;
26718;SDS011;14326;50.794;6.060;2023-05-09T10:47:49;13.82;;;4.60;;
26718;SDS011;14326;50.794;6.060;2023-05-09T10:50:25;15.73;;;5.30;;
26718;SDS011;14326;50.794;6.060;2023-05-09T10:53:07;13.63;;;5.28;;
26718;SDS011;14326;50.794;6.060;2023-05-09T10:55:38;12.50;;;4.82;;
26718;SDS011;14326;50.794;6.060;2023-05-09T10:58:17;14.60;;;5.43;;
26718;SDS011;14326;50.794;6.060;2023-05-09T11:00:45;16.25;;;5.85;;
26718;SDS011;14326;50.794;6.060;2023-05-09T11:03:12;17.48;;;5.97;;
26718;SDS011;14326;50.794;6.060;2023-05-09T11:05:39;14.45;;;5.40;;
26718;SDS011;14326;50.794;6.060;2023-05-09T11:11:05;13.13;;;5.22;;
26718;SDS011;14326;50.794;6.060;2023-05-09T11:13:35;11.77;;;4.78;;
26718;SDS011;14326;50.794;6.060;2023-05-09T11:16:11;14.25;;;4.85;;
26718;SDS011;14326;50.794;6.060;2023-05-09T11:21:22;13.20;;;5.00;;
26718;SDS011;14326;50.794;6.060;2023-05-09T11:23:52;13.73;;;4.82;;
26718;SDS011;14326;50.794;6.060;2023-05-09T11:26:21;12.88;;;5.20;;
26718;SDS011;14326;50.794;6.060;2023-05-09T11:28:54;15.10;;;5.32;;
26718;SDS011;14326;50.794;6.060;2023-05-09T11:31:26;12.18;;;4.88;;
26718;SDS011;14326;50.794;6.060;2023-05-09T11:33:53;13.77;;;4.15;;
26718;SDS011;14326;50.794;6.060;2023-05-09T11:36:29;12.10;;;4.50;;
26718;SDS011;14326;50.794;6.060;2023-05-09T11:39:05;12.02;;;5.00;;
26718;SDS011;14326;50.794;6.060;2023-05-09T11:41:39;13.70;;;5.38;;
26718;SDS011;14326;50.794;6.060;2023-05-09T11:44:16;12.20;;;4.65;;
26718;SDS011;14326;50.794;6.060;2023-05-09T11:47:18;13.15;;;5.20;;
26718;SDS011;14326;50.794;6.060;2023-05-09T11:49:51;14.80;;;5.55;;
26718;SDS011;14326;50.794;6.060;2023-05-09T11:52:18;15.48;;;5.57;;
26718;SDS011;14326;50.794;6.060;2023-05-09T11:54:47;17.23;;;5.68;;
26718;SDS011;14326;50.794;6.060;2023-05-09T11:57:14;16.13;;;5.68;;
26718;SDS011;14326;50.794;6.060;2023-05-09T11:59:42;14.70;;;5.70;;
26718;SDS011;14326;50.794;6.060;2023-05-09T12:02:10;16.45;;;5.88;;
26718;SDS011;14326;50.794;6.060;2023-05-09T12:04:37;14.68;;;5.97;;
26718;SDS011;14326;50.794;6.060;2023-05-09T12:07:14;14.07;;;5.35;;
26718;SDS011;14326;50.794;6.060;2023-05-09T12:10:02;13.15;;;5.57;;
26718;SDS011;14326;50.794;6.060;2023-05-09T12:12:32;13.95;;;5.63;;
26718;SDS011;14326;50.794;6.060;2023-05-09T12:15:00;15.40;;;5.85;;
26718;SDS011;14326;50.794;6.060;2023-05-09T12:17:28;15.70;;;5.53;;
26718;SDS011;14326;50.794;6.060;2023-05-09T12:20:09;14.95;;;6.07;;
26718;SDS011;14326;50.794;6.060;2023-05-09T12:22:51;13.65;;;5.68;;
26718;SDS011;14326;50.794;6.060;2023-05-09T12:25:20;14.80;;;5.22;;
26718;SDS011;14326;50.794;6.060;2023-05-09T12:27:53;13.93;;;4.57;;
26718;SDS011;14326;50.794;6.060;2023-05-09T12:30:21;12.95;;;4.53;;
26718;SDS011;14326;50.794;6.060;2023-05-09T12:32:59;14.57;;;4.57;;
26718;SDS011;14326;50.794;6.060;2023-05-09T12:35:38;11.50;;;4.40;;
26718;SDS011;14326;50.794;6.060;2023-05-09T12:38:31;15.25;;;4.57;;
26718;SDS011;14326;50.794;6.060;2023-05-09T12:41:03;13.27;;;4.20;;
26718;SDS011;14326;50.794;6.060;2023-05-09T12:43:32;14.10;;;4.40;;
26718;SDS011;14326;50.794;6.060;2023-05-09T12:46:16;16.90;;;4.32;;
26718;SDS011;14326;50.794;6.060;2023-05-09T12:49:18;14.27;;;3.80;;
26718;SDS011;14326;50.794;6.060;2023-05-09T12:51:47;7.90;;;3.03;;
26718;SDS011;14326;50.794;6.060;2023-05-09T12:54:18;10.25;;;3.58;;
26718;SDS011;14326;50.794;6.060;2023-05-09T12:56:46;10.05;;;3.42;;
26718;SDS011;14326;50.794;6.060;2023-05-09T12:59:18;10.77;;;3.70;;
26718;SDS011;14326;50.794;6.060;2023-05-09T13:01:49;11.50;;;4.20;;
26718;SDS011;14326;50.794;6.060;2023-05-09T13:04:18;8.75;;;2.97;;
26718;SDS011;14326;50.794;6.060;2023-05-09T13:06:52;10.88;;;3.50;;
26718;SDS011;14326;50.794;6.060;2023-05-09T13:09:43;10.35;;;3.47;;
26718;SDS011;14326;50.794;6.060;2023-05-09T13:12:22;11.57;;;3.40;;
26718;SDS011;14326;50.794;6.060;2023-05-09T13:14:49;12.63;;;3.53;;
26718;SDS011;14326;50.794;6.060;2023-05-09T13:17:15;9.23;;;3.30;;
26718;SDS011;14326;50.794;6.060;2023-05-09T13:19:42;9.90;;;3.40;;
26718;SDS011;14326;50.794;6.060;2023-05-09T13:22:09;9.68;;;3.63;;
26718;SDS011;14326;50.794;6.060;2023-05-09T13:24:35;9.38;;;3.30;;
26718;SDS011;14326;50.794;6.060;2023-05-09T13:27:02;8.52;;;3.25;;
26718;SDS011;14326;50.794;6.060;2023-05-09T13:29:31;8.60;;;3.00;;
26718;SDS011;14326;50.794;6.060;2023-05-09T13:31:57;11.75;;;3.35;;
26718;SDS011;14326;50.794;6.060;2023-05-09T13:34:24;12.75;;;3.53;;
26718;SDS011;14326;50.794;6.060;2023-05-09T13:36:56;8.27;;;3.25;;
26718;SDS011;14326;50.794;6.060;2023-05-09T13:39:23;9.05;;;2.97;;
26718;SDS011;14326;50.794;6.060;2023-05-09T13:41:54;9.20;;;3.35;;
26718;SDS011;14326;50.794;6.060;2023-05-09T13:44:36;12.45;;;3.83;;
26718;SDS011;14326;50.794;6.060;2023-05-09T13:47:03;12.13;;;3.10;;
26718;SDS011;14326;50.794;6.060;2023-05-09T13:49:31;9.57;;;3.63;;
26718;SDS011;14326;50.794;6.060;2023-05-09T13:51:58;11.10;;;3.47;;
26718;SDS011;14326;50.794;6.060;2023-05-09T13:54:25;11.82;;;3.10;;
26718;SDS011;14326;50.794;6.060;2023-05-09T13:56:53;7.85;;;3.00;;
26718;SDS011;14326;50.794;6.060;2023-05-09T13:59:20;14.85;;;3.50;;
26718;SDS011;14326;50.794;6.060;2023-05-09T14:01:49;10.00;;;2.92;;
26718;SDS011;14326;50.794;6.060;2023-05-09T14:04:15;8.38;;;3.40;;
26718;SDS011;14326;50.794;6.060;2023-05-09T14:06:42;7.72;;;2.90;;
26718;SDS011;14326;50.794;6.060;2023-05-09T14:09:12;7.10;;;2.40;;
26718;SDS011;14326;50.794;6.060;2023-05-09T14:11:39;9.93;;;3.17;;
26718;SDS011;14326;50.794;6.060;2023-05-09T14:14:06;10.48;;;3.17;;
26718;SDS011;14326;50.794;6.060;2023-05-09T14:16:33;12.35;;;3.60;;
26718;SDS011;14326;50.794;6.060;2023-05-09T14:19:14;14.05;;;3.70;;
26718;SDS011;14326;50.794;6.060;2023-05-09T14:21:59;12.43;;;3.90;;
26718;SDS011;14326;50.794;6.060;2023-05-09T14:24:25;6.57;;;2.92;;
26718;SDS011;14326;50.794;6.060;2023-05-09T14:26:54;12.55;;;2.22;;
26718;SDS011;14326;50.794;6.060;2023-05-09T14:29:21;5.18;;;1.75;;
26718;SDS011;14326;50.794;6.060;2023-05-09T14:31:48;6.22;;;1.92;;
26718;SDS011;14326;50.794;6.060;2023-05-09T14:34:16;5.85;;;2.20;;
26718;SDS011;14326;50.794;6.060;2023-05-09T14:36:43;8.82;;;2.20;;
26718;SDS011;14326;50.794;6.060;2023-05-09T14:39:12;6.40;;;2.35;;
26718;SDS011;14326;50.794;6.060;2023-05-09T14:41:53;5.88;;;2.13;;
26718;SDS011;14326;50.794;6.060;2023-05-09T14:47:21;8.43;;;2.30;;
26718;SDS011;14326;50.794;6.060;2023-05-09T14:49:49;8.95;;;2.13;;
26718;SDS011;14326;50.794;6.060;2023-05-09T14:52:16;8.75;;;2.40;;
26718;SDS011;14326;50.794;6.060;2023-05-09T14:54:43;6.72;;;2.67;;
26718;SDS011;14326;50.794;6.060;2023-05-09T14:57:09;7.63;;;2.47;;
26718;SDS011;14326;50.794;6.060;2023-05-09T14:59:36;6.55;;;2.35;;
26718;SDS011;14326;50.794;6.060;2023-05-09T15:02:02;7.22;;;2.80;;
26718;SDS011;14326;50.794;6.060;2023-05-09T15:04:38;6.60;;;2.45;;
26718;SDS011;14326;50.794;6.060;2023-05-09T15:07:26;10.02;;;2.67;;
26718;SDS011;14326;50.794;6.060;2023-05-09T15:09:53;7.72;;;2.95;;
26718;SDS011;14326;50.794;6.060;2023-05-09T15:12:19;7.20;;;2.80;;
26718;SDS011;14326;50.794;6.060;2023-05-09T15:14:46;8.20;;;2.90;;
26718;SDS011;14326;50.794;6.060;2023-05-09T15:17:13;7.63;;;2.72;;